sensor_id;sensor_type;location;lat;lon;timestamp;pressure;altitude;pressure_sealevel;temperature;humidity
53679;BME280;40119;52.030;4.708;2022-07-11T00:00:07;102537.81;;;21.35;44.56
53679;BME280;40119;52.030;4.708;2022-07-11T00:02:13;102532.98;;;20.71;45.51
53679;BME280;40119;52.030;4.708;2022-07-11T00:04:34;102525.73;;;22.84;41.89
53679;BME280;40119;52.030;4.708;2022-07-11T00:06:47;102529.82;;;22.02;42.78
53679;BME280;40119;52.030;4.708;2022-07-11T00:09:12;102535.99;;;18.47;49.17
53679;BME280;40119;52.030;4.708;2022-07-11T00:11:25;102530.35;;;20.93;45.09
53679;BME280;40119;52.030;4.708;2022-07-11T00:13:30;102527.85;;;22.23;42.50
53679;BME280;40119;52.030;4.708;2022-07-11T00:15:41;102527.84;;;17.39;51.10
53679;BME280;40119;52.030;4.708;2022-07-11T00:17:56;102523.10;;;20.88;45.36
53679;BME280;40119;52.030;4.708;2022-07-11T00:21:14;102520.57;;;23.01;41.65
53679;BME280;40119;52.030;4.708;2022-07-11T00:23:24;102528.76;;;21.16;44.82
53679;BME280;40119;52.030;4.708;2022-07-11T00:25:41;102531.28;;;20.72;46.13
53679;BME280;40119;52.030;4.708;2022-07-11T00:28:14;102529.92;;;20.98;45.35
53679;BME280;40119;52.030;4.708;2022-07-11T00:30:37;102528.47;;;19.58;48.24
53679;BME280;40119;52.030;4.708;2022-07-11T00:32:42;102530.34;;;20.78;46.00
53679;BME280;40119;52.030;4.708;2022-07-11T00:34:47;102530.16;;;19.35;48.13
53679;BME280;40119;52.030;4.708;2022-07-11T00:37:02;102527.21;;;20.23;46.44
53679;BME280;40119;52.030;4.708;2022-07-11T00:39:15;102519.64;;;22.94;42.35
53679;BME280;40119;52.030;4.708;2022-07-11T00:41:32;102516.10;;;22.63;42.01
53679;BME280;40119;52.030;4.708;2022-07-11T00:43:41;102514.89;;;23.93;40.57
53679;BME280;40119;52.030;4.708;2022-07-11T00:46:11;102522.00;;;20.13;46.17
53679;BME280;40119;52.030;4.708;2022-07-11T00:48:34;102520.58;;;20.18;46.20
53679;BME280;40119;52.030;4.708;2022-07-11T00:51:23;102517.33;;;19.72;47.59
53679;BME280;40119;52.030;4.708;2022-07-11T00:53:34;102515.35;;;20.82;45.17
53679;BME280;40119;52.030;4.708;2022-07-11T00:55:41;102514.53;;;18.78;49.48
53679;BME280;40119;52.030;4.708;2022-07-11T00:58:06;102512.64;;;20.42;47.32
53679;BME280;40119;52.030;4.708;2022-07-11T01:00:17;102513.68;;;21.69;44.45
53679;BME280;40119;52.030;4.708;2022-07-11T01:02:27;102515.04;;;21.10;45.65
53679;BME280;40119;52.030;4.708;2022-07-11T01:04:41;102520.15;;;18.19;51.36
53679;BME280;40119;52.030;4.708;2022-07-11T01:06:52;102518.58;;;20.78;46.22
53679;BME280;40119;52.030;4.708;2022-07-11T01:08:58;102517.31;;;19.13;49.72
53679;BME280;40119;52.030;4.708;2022-07-11T01:13:51;102521.63;;;20.61;46.01
53679;BME280;40119;52.030;4.708;2022-07-11T01:16:10;102520.37;;;17.65;52.17
53679;BME280;40119;52.030;4.708;2022-07-11T01:18:40;102520.92;;;18.74;50.67
53679;BME280;40119;52.030;4.708;2022-07-11T01:21:00;102518.00;;;22.25;43.72
53679;BME280;40119;52.030;4.708;2022-07-11T01:23:06;102521.13;;;22.28;43.06
53679;BME280;40119;52.030;4.708;2022-07-11T01:25:27;102519.08;;;21.25;44.96
53679;BME280;40119;52.030;4.708;2022-07-11T01:27:55;102515.80;;;23.35;41.25
53679;BME280;40119;52.030;4.708;2022-07-11T01:30:33;102529.18;;;19.56;47.83
53679;BME280;40119;52.030;4.708;2022-07-11T01:33:04;102527.40;;;21.08;45.48
53679;BME280;40119;52.030;4.708;2022-07-11T01:35:17;102524.69;;;22.70;42.23
53679;BME280;40119;52.030;4.708;2022-07-11T01:37:26;102524.68;;;21.67;43.26
53679;BME280;40119;52.030;4.708;2022-07-11T01:39:32;102529.50;;;21.00;44.26
53679;BME280;40119;52.030;4.708;2022-07-11T01:41:40;102524.66;;;22.26;42.53
53679;BME280;40119;52.030;4.708;2022-07-11T01:43:52;102524.63;;;24.42;39.50
53679;BME280;40119;52.030;4.708;2022-07-11T01:46:05;102522.51;;;23.23;40.62
53679;BME280;40119;52.030;4.708;2022-07-11T01:48:24;102524.10;;;24.60;38.36
53679;BME280;40119;52.030;4.708;2022-07-11T01:50:35;102523.48;;;24.14;39.10
53679;BME280;40119;52.030;4.708;2022-07-11T01:52:53;102520.51;;;23.69;39.62
53679;BME280;40119;52.030;4.708;2022-07-11T01:55:12;102520.13;;;24.02;39.44
53679;BME280;40119;52.030;4.708;2022-07-11T01:57:33;102516.42;;;23.08;40.54
53679;BME280;40119;52.030;4.708;2022-07-11T01:59:41;102513.18;;;24.91;37.70
53679;BME280;40119;52.030;4.708;2022-07-11T02:02:23;102507.62;;;24.89;37.51
53679;BME280;40119;52.030;4.708;2022-07-11T02:04:28;102507.16;;;24.26;38.62
53679;BME280;40119;52.030;4.708;2022-07-11T02:06:38;102507.53;;;22.77;40.51
53679;BME280;40119;52.030;4.708;2022-07-11T02:08:42;102508.73;;;23.75;39.53
53679;BME280;40119;52.030;4.708;2022-07-11T02:10:49;102511.63;;;20.11;45.20
53679;BME280;40119;52.030;4.708;2022-07-11T02:13:00;102507.89;;;21.66;42.91
53679;BME280;40119;52.030;4.708;2022-07-11T02:15:16;102508.29;;;21.56;43.44
53679;BME280;40119;52.030;4.708;2022-07-11T02:17:22;102504.58;;;22.41;41.88
53679;BME280;40119;52.030;4.708;2022-07-11T02:19:28;102506.15;;;23.01;41.05
53679;BME280;40119;52.030;4.708;2022-07-11T02:21:34;102503.99;;;24.28;38.80
53679;BME280;40119;52.030;4.708;2022-07-11T02:23:39;102502.89;;;22.92;41.29
53679;BME280;40119;52.030;4.708;2022-07-11T02:25:50;102503.29;;;23.86;39.26
53679;BME280;40119;52.030;4.708;2022-07-11T02:28:15;102501.10;;;23.66;39.37
53679;BME280;40119;52.030;4.708;2022-07-11T02:30:31;102497.47;;;24.63;37.48
53679;BME280;40119;52.030;4.708;2022-07-11T02:32:36;102496.15;;;21.11;43.13
53679;BME280;40119;52.030;4.708;2022-07-11T02:34:41;102494.65;;;23.49;39.41
53679;BME280;40119;52.030;4.708;2022-07-11T02:36:45;102496.09;;;25.47;37.06
53679;BME280;40119;52.030;4.708;2022-07-11T02:38:49;102494.77;;;24.51;37.73
53679;BME280;40119;52.030;4.708;2022-07-11T02:40:53;102496.17;;;24.80;38.03
53679;BME280;40119;52.030;4.708;2022-07-11T02:42:58;102497.92;;;22.80;40.80
53679;BME280;40119;52.030;4.708;2022-07-11T02:45:02;102498.42;;;24.56;38.40
53679;BME280;40119;52.030;4.708;2022-07-11T02:47:07;102496.07;;;22.99;40.59
53679;BME280;40119;52.030;4.708;2022-07-11T02:49:11;102499.21;;;23.90;39.74
53679;BME280;40119;52.030;4.708;2022-07-11T02:51:16;102499.77;;;23.91;39.68
53679;BME280;40119;52.030;4.708;2022-07-11T02:53:25;102502.10;;;22.81;40.78
53679;BME280;40119;52.030;4.708;2022-07-11T02:55:29;102504.64;;;23.94;39.58
53679;BME280;40119;52.030;4.708;2022-07-11T02:57:34;102503.34;;;25.41;37.16
53679;BME280;40119;52.030;4.708;2022-07-11T02:59:39;102500.16;;;23.58;39.38
53679;BME280;40119;52.030;4.708;2022-07-11T03:01:43;102495.55;;;24.93;37.44
53679;BME280;40119;52.030;4.708;2022-07-11T03:03:48;102493.15;;;21.74;42.56
53679;BME280;40119;52.030;4.708;2022-07-11T03:05:52;102488.42;;;24.12;39.18
53679;BME280;40119;52.030;4.708;2022-07-11T03:07:56;102489.62;;;23.83;39.04
53679;BME280;40119;52.030;4.708;2022-07-11T03:10:01;102495.25;;;22.96;40.36
53679;BME280;40119;52.030;4.708;2022-07-11T03:12:06;102500.54;;;21.73;42.26
53679;BME280;40119;52.030;4.708;2022-07-11T03:14:11;102502.30;;;23.31;39.95
53679;BME280;40119;52.030;4.708;2022-07-11T03:16:15;102499.94;;;21.66;41.83
53679;BME280;40119;52.030;4.708;2022-07-11T03:18:20;102498.68;;;22.29;41.64
53679;BME280;40119;52.030;4.708;2022-07-11T03:20:25;102498.98;;;23.16;40.38
53679;BME280;40119;52.030;4.708;2022-07-11T03:22:29;102499.77;;;23.90;38.99
53679;BME280;40119;52.030;4.708;2022-07-11T03:24:33;102504.65;;;21.69;42.94
53679;BME280;40119;52.030;4.708;2022-07-11T03:26:38;102500.64;;;24.61;38.18
53679;BME280;40119;52.030;4.708;2022-07-11T03:28:42;102503.56;;;20.38;44.99
53679;BME280;40119;52.030;4.708;2022-07-11T03:30:46;102499.64;;;24.89;37.90
53679;BME280;40119;52.030;4.708;2022-07-11T03:32:51;102502.62;;;24.27;38.49
53679;BME280;40119;52.030;4.708;2022-07-11T03:34:55;102499.89;;;23.80;39.05
53679;BME280;40119;52.030;4.708;2022-07-11T03:37:00;102502.92;;;24.02;38.71
53679;BME280;40119;52.030;4.708;2022-07-11T03:39:04;102505.66;;;24.07;38.21
53679;BME280;40119;52.030;4.708;2022-07-11T03:41:08;102508.79;;;21.08;43.46
53679;BME280;40119;52.030;4.708;2022-07-11T03:43:13;102511.01;;;20.36;45.12
53679;BME280;40119;52.030;4.708;2022-07-11T03:45:18;102509.73;;;19.96;46.22
53679;BME280;40119;52.030;4.708;2022-07-11T03:47:22;102498.08;;;22.96;40.76
53679;BME280;40119;52.030;4.708;2022-07-11T03:49:27;102499.33;;;20.59;44.79
53679;BME280;40119;52.030;4.708;2022-07-11T03:51:31;102496.63;;;22.45;42.46
53679;BME280;40119;52.030;4.708;2022-07-11T03:53:35;102498.14;;;24.67;38.79
53679;BME280;40119;52.030;4.708;2022-07-11T03:55:40;102502.39;;;24.05;40.06
53679;BME280;40119;52.030;4.708;2022-07-11T03:57:44;102503.52;;;22.48;41.29
53679;BME280;40119;52.030;4.708;2022-07-11T03:59:49;102504.81;;;23.85;39.95
53679;BME280;40119;52.030;4.708;2022-07-11T04:01:53;102508.06;;;22.49;41.62
53679;BME280;40119;52.030;4.708;2022-07-11T04:03:57;102503.20;;;24.67;38.39
53679;BME280;40119;52.030;4.708;2022-07-11T04:06:01;102503.98;;;22.93;41.64
53679;BME280;40119;52.030;4.708;2022-07-11T04:08:06;102505.42;;;21.92;42.80
53679;BME280;40119;52.030;4.708;2022-07-11T04:10:10;102509.71;;;19.30;48.10
53679;BME280;40119;52.030;4.708;2022-07-11T04:12:15;102507.57;;;20.48;46.77
53679;BME280;40119;52.030;4.708;2022-07-11T04:14:19;102506.04;;;19.46;48.19
53679;BME280;40119;52.030;4.708;2022-07-11T04:16:24;102510.01;;;19.96;46.67
53679;BME280;40119;52.030;4.708;2022-07-11T04:18:28;102505.91;;;21.05;45.99
53679;BME280;40119;52.030;4.708;2022-07-11T04:20:33;102508.10;;;18.02;51.20
53679;BME280;40119;52.030;4.708;2022-07-11T04:22:37;102508.93;;;20.54;47.11
53679;BME280;40119;52.030;4.708;2022-07-11T04:24:41;102504.44;;;21.63;44.94
53679;BME280;40119;52.030;4.708;2022-07-11T04:26:45;102502.36;;;21.72;44.48
53679;BME280;40119;52.030;4.708;2022-07-11T04:28:50;102505.39;;;22.12;43.70
53679;BME280;40119;52.030;4.708;2022-07-11T04:30:54;102509.09;;;20.27;47.29
53679;BME280;40119;52.030;4.708;2022-07-11T04:32:58;102508.12;;;19.37;49.22
53679;BME280;40119;52.030;4.708;2022-07-11T04:35:03;102500.93;;;21.15;46.40
53679;BME280;40119;52.030;4.708;2022-07-11T04:37:08;102502.81;;;17.22;53.83
53679;BME280;40119;52.030;4.708;2022-07-11T04:39:13;102500.99;;;20.32;48.69
53679;BME280;40119;52.030;4.708;2022-07-11T04:41:17;102497.38;;;20.42;48.51
53679;BME280;40119;52.030;4.708;2022-07-11T04:43:22;102495.38;;;19.53;49.13
53679;BME280;40119;52.030;4.708;2022-07-11T04:45:26;102500.34;;;16.54;56.02
53679;BME280;40119;52.030;4.708;2022-07-11T04:47:31;102500.92;;;17.91;53.60
53679;BME280;40119;52.030;4.708;2022-07-11T04:49:35;102502.18;;;19.33;50.69
53679;BME280;40119;52.030;4.708;2022-07-11T04:51:39;102507.78;;;18.74;52.31
53679;BME280;40119;52.030;4.708;2022-07-11T04:53:44;102506.54;;;19.42;52.01
53679;BME280;40119;52.030;4.708;2022-07-11T04:55:48;102507.19;;;19.91;50.40
53679;BME280;40119;52.030;4.708;2022-07-11T04:57:53;102505.96;;;19.69;50.09
53679;BME280;40119;52.030;4.708;2022-07-11T04:59:57;102498.80;;;21.58;45.47
53679;BME280;40119;52.030;4.708;2022-07-11T05:02:02;102506.26;;;19.98;48.92
53679;BME280;40119;52.030;4.708;2022-07-11T05:04:06;102509.94;;;17.80;53.80
53679;BME280;40119;52.030;4.708;2022-07-11T05:06:11;102510.51;;;20.18;49.04
53679;BME280;40119;52.030;4.708;2022-07-11T05:08:15;102513.95;;;19.62;49.45
53679;BME280;40119;52.030;4.708;2022-07-11T05:10:20;102518.30;;;20.16;49.66
53679;BME280;40119;52.030;4.708;2022-07-11T05:12:25;102517.11;;;20.13;48.35
53679;BME280;40119;52.030;4.708;2022-07-11T05:14:29;102520.76;;;18.91;52.26
53679;BME280;40119;52.030;4.708;2022-07-11T05:16:33;102516.07;;;21.65;46.60
53679;BME280;40119;52.030;4.708;2022-07-11T05:18:37;102523.10;;;18.70;51.96
53679;BME280;40119;52.030;4.708;2022-07-11T05:20:42;102524.47;;;20.98;47.73
53679;BME280;40119;52.030;4.708;2022-07-11T05:22:46;102527.03;;;19.59;49.30
53679;BME280;40119;52.030;4.708;2022-07-11T05:24:50;102531.72;;;20.94;47.75
53679;BME280;40119;52.030;4.708;2022-07-11T05:26:55;102545.55;;;15.31;58.12
53679;BME280;40119;52.030;4.708;2022-07-11T05:28:59;102551.25;;;15.40;60.83
53679;BME280;40119;52.030;4.708;2022-07-11T05:31:03;102549.40;;;17.57;55.60
53679;BME280;40119;52.030;4.708;2022-07-11T05:33:08;102551.35;;;17.84;55.15
53679;BME280;40119;52.030;4.708;2022-07-11T05:35:12;102550.78;;;17.66;54.97
53679;BME280;40119;52.030;4.708;2022-07-11T05:37:17;102548.41;;;18.54;53.28
53679;BME280;40119;52.030;4.708;2022-07-11T05:39:22;102553.11;;;18.01;54.77
53679;BME280;40119;52.030;4.708;2022-07-11T05:41:26;102554.23;;;17.99;55.15
53679;BME280;40119;52.030;4.708;2022-07-11T05:43:30;102552.57;;;19.38;51.83
53679;BME280;40119;52.030;4.708;2022-07-11T05:45:35;102554.71;;;18.43;53.28
53679;BME280;40119;52.030;4.708;2022-07-11T05:47:39;102554.55;;;21.59;47.07
53679;BME280;40119;52.030;4.708;2022-07-11T05:49:43;102558.85;;;19.04;51.17
53679;BME280;40119;52.030;4.708;2022-07-11T05:51:48;102555.64;;;21.97;45.43
53679;BME280;40119;52.030;4.708;2022-07-11T05:53:52;102556.53;;;19.30;49.75
53679;BME280;40119;52.030;4.708;2022-07-11T05:55:56;102552.45;;;21.72;45.18
53679;BME280;40119;52.030;4.708;2022-07-11T05:58:00;102559.57;;;18.12;54.03
53679;BME280;40119;52.030;4.708;2022-07-11T06:00:06;102563.68;;;18.98;51.87
53679;BME280;40119;52.030;4.708;2022-07-11T06:02:10;102568.47;;;16.85;56.62
53679;BME280;40119;52.030;4.708;2022-07-11T06:04:14;102562.37;;;18.57;52.74
53679;BME280;40119;52.030;4.708;2022-07-11T06:06:19;102565.19;;;16.82;56.24
53679;BME280;40119;52.030;4.708;2022-07-11T06:08:24;102562.88;;;17.79;54.66
53679;BME280;40119;52.030;4.708;2022-07-11T06:10:28;102556.56;;;19.89;50.11
53679;BME280;40119;52.030;4.708;2022-07-11T06:12:33;102555.14;;;16.64;55.51
53679;BME280;40119;52.030;4.708;2022-07-11T06:14:37;102547.63;;;18.89;50.82
53679;BME280;40119;52.030;4.708;2022-07-11T06:16:41;102544.16;;;20.91;47.84
53679;BME280;40119;52.030;4.708;2022-07-11T06:18:46;102542.49;;;18.27;51.85
53679;BME280;40119;52.030;4.708;2022-07-11T06:20:50;102541.22;;;20.24;48.61
53679;BME280;40119;52.030;4.708;2022-07-11T06:22:55;102537.12;;;21.49;45.66
53679;BME280;40119;52.030;4.708;2022-07-11T06:24:59;102537.69;;;17.21;53.08
53679;BME280;40119;52.030;4.708;2022-07-11T06:27:04;102533.73;;;21.93;45.18
53679;BME280;40119;52.030;4.708;2022-07-11T06:29:08;102525.58;;;23.66;41.68
53679;BME280;40119;52.030;4.708;2022-07-11T06:31:12;102532.68;;;18.04;51.85
53679;BME280;40119;52.030;4.708;2022-07-11T06:33:17;102532.99;;;20.98;47.45
53679;BME280;40119;52.030;4.708;2022-07-11T06:35:22;102532.15;;;20.03;48.18
53679;BME280;40119;52.030;4.708;2022-07-11T06:37:27;102533.69;;;21.37;45.89
53679;BME280;40119;52.030;4.708;2022-07-11T06:39:31;102535.77;;;20.14;48.41
53679;BME280;40119;52.030;4.708;2022-07-11T06:41:36;102530.94;;;22.42;43.93
53679;BME280;40119;52.030;4.708;2022-07-11T06:43:40;102537.92;;;20.74;47.11
53679;BME280;40119;52.030;4.708;2022-07-11T06:45:45;102536.13;;;20.13;48.35
53679;BME280;40119;52.030;4.708;2022-07-11T06:47:49;102538.23;;;18.95;49.66
53679;BME280;40119;52.030;4.708;2022-07-11T06:49:53;102538.04;;;20.47;47.52
53679;BME280;40119;52.030;4.708;2022-07-11T06:51:57;102538.55;;;20.35;48.18
53679;BME280;40119;52.030;4.708;2022-07-11T06:54:02;102543.61;;;18.76;51.47
53679;BME280;40119;52.030;4.708;2022-07-11T06:56:07;102547.98;;;19.95;48.32
53679;BME280;40119;52.030;4.708;2022-07-11T06:58:11;102547.28;;;21.13;45.95
53679;BME280;40119;52.030;4.708;2022-07-11T07:00:16;102550.06;;;21.36;46.02
53679;BME280;40119;52.030;4.708;2022-07-11T07:02:21;102551.78;;;20.62;47.16
53679;BME280;40119;52.030;4.708;2022-07-11T07:04:25;102551.19;;;19.44;50.41
53679;BME280;40119;52.030;4.708;2022-07-11T07:06:30;102550.16;;;18.36;52.58
53679;BME280;40119;52.030;4.708;2022-07-11T07:08:34;102550.00;;;19.98;49.29
53679;BME280;40119;52.030;4.708;2022-07-11T07:10:38;102547.19;;;22.41;44.67
53679;BME280;40119;52.030;4.708;2022-07-11T07:12:43;102550.71;;;20.59;46.86
53679;BME280;40119;52.030;4.708;2022-07-11T07:14:48;102549.82;;;21.24;46.18
53679;BME280;40119;52.030;4.708;2022-07-11T07:16:52;102559.64;;;21.00;46.20
53679;BME280;40119;52.030;4.708;2022-07-11T07:18:56;102563.81;;;18.88;49.19
53679;BME280;40119;52.030;4.708;2022-07-11T07:21:01;102565.33;;;18.25;51.87
53679;BME280;40119;52.030;4.708;2022-07-11T07:23:05;102564.06;;;18.98;51.49
53679;BME280;40119;52.030;4.708;2022-07-11T07:25:09;102564.45;;;19.62;49.60
53679;BME280;40119;52.030;4.708;2022-07-11T07:27:14;102564.95;;;20.02;49.19
53679;BME280;40119;52.030;4.708;2022-07-11T07:29:18;102554.59;;;23.63;43.04
53679;BME280;40119;52.030;4.708;2022-07-11T07:31:23;102556.09;;;21.86;45.74
53679;BME280;40119;52.030;4.708;2022-07-11T07:33:27;102556.99;;;21.10;46.27
53679;BME280;40119;52.030;4.708;2022-07-11T07:35:31;102559.70;;;19.87;47.87
53679;BME280;40119;52.030;4.708;2022-07-11T07:37:35;102560.01;;;21.09;46.72
53679;BME280;40119;52.030;4.708;2022-07-11T07:39:40;102564.63;;;20.92;46.17
53679;BME280;40119;52.030;4.708;2022-07-11T07:41:44;102562.23;;;22.58;43.69
53679;BME280;40119;52.030;4.708;2022-07-11T07:43:49;102559.39;;;23.32;41.98
53679;BME280;40119;52.030;4.708;2022-07-11T07:45:53;102564.46;;;21.14;45.31
53679;BME280;40119;52.030;4.708;2022-07-11T07:47:57;102573.55;;;18.27;51.96
53679;BME280;40119;52.030;4.708;2022-07-11T07:50:02;102573.05;;;20.46;47.80
53679;BME280;40119;52.030;4.708;2022-07-11T07:52:06;102572.60;;;19.49;49.14
53679;BME280;40119;52.030;4.708;2022-07-11T07:54:11;102568.42;;;20.54;46.97
53679;BME280;40119;52.030;4.708;2022-07-11T07:56:15;102567.90;;;20.07;49.26
53679;BME280;40119;52.030;4.708;2022-07-11T07:58:20;102564.18;;;22.43;43.54
53679;BME280;40119;52.030;4.708;2022-07-11T08:00:24;102566.12;;;21.28;45.54
53679;BME280;40119;52.030;4.708;2022-07-11T08:02:29;102570.47;;;19.97;47.81
53679;BME280;40119;52.030;4.708;2022-07-11T08:04:33;102571.73;;;20.21;47.84
53679;BME280;40119;52.030;4.708;2022-07-11T08:06:38;102567.37;;;22.51;43.63
53679;BME280;40119;52.030;4.708;2022-07-11T08:08:43;102572.42;;;20.84;46.48
53679;BME280;40119;52.030;4.708;2022-07-11T08:10:47;102573.91;;;20.46;47.11
53679;BME280;40119;52.030;4.708;2022-07-11T08:12:52;102569.52;;;23.25;42.19
53679;BME280;40119;52.030;4.708;2022-07-11T08:14:56;102580.60;;;21.07;45.88
53679;BME280;40119;52.030;4.708;2022-07-11T08:17:00;102577.74;;;21.84;44.27
53679;BME280;40119;52.030;4.708;2022-07-11T08:19:05;102581.28;;;23.08;42.63
53679;BME280;40119;52.030;4.708;2022-07-11T08:21:09;102585.04;;;20.85;46.22
53679;BME280;40119;52.030;4.708;2022-07-11T08:23:14;102584.92;;;20.58;46.72
53679;BME280;40119;52.030;4.708;2022-07-11T08:25:18;102587.16;;;20.09;47.05
53679;BME280;40119;52.030;4.708;2022-07-11T08:27:22;102577.56;;;23.02;42.30
53679;BME280;40119;52.030;4.708;2022-07-11T08:29:27;102572.73;;;23.31;41.42
53679;BME280;40119;52.030;4.708;2022-07-11T08:31:31;102575.06;;;22.33;41.88
53679;BME280;40119;52.030;4.708;2022-07-11T08:33:41;102578.86;;;22.11;43.22
53679;BME280;40119;52.030;4.708;2022-07-11T08:35:45;102571.05;;;22.86;41.05
53679;BME280;40119;52.030;4.708;2022-07-11T08:37:56;102571.57;;;21.86;43.44
53679;BME280;40119;52.030;4.708;2022-07-11T08:40:01;102567.44;;;23.61;40.16
53679;BME280;40119;52.030;4.708;2022-07-11T08:42:07;102565.78;;;23.03;42.15
53679;BME280;40119;52.030;4.708;2022-07-11T08:44:12;102564.10;;;23.79;41.15
53679;BME280;40119;52.030;4.708;2022-07-11T08:46:17;102567.48;;;21.95;43.21
53679;BME280;40119;52.030;4.708;2022-07-11T08:48:22;102567.40;;;22.35;42.04
53679;BME280;40119;52.030;4.708;2022-07-11T08:50:27;102567.01;;;22.22;41.89
53679;BME280;40119;52.030;4.708;2022-07-11T08:52:33;102565.79;;;23.46;41.08
53679;BME280;40119;52.030;4.708;2022-07-11T08:54:39;102572.20;;;19.55;47.12
53679;BME280;40119;52.030;4.708;2022-07-11T08:56:50;102568.18;;;17.74;51.16
53679;BME280;40119;52.030;4.708;2022-07-11T08:58:55;102560.22;;;21.43;44.69
53679;BME280;40119;52.030;4.708;2022-07-11T09:01:02;102557.39;;;23.38;41.05
53679;BME280;40119;52.030;4.708;2022-07-11T09:03:07;102566.87;;;20.52;45.76
53679;BME280;40119;52.030;4.708;2022-07-11T09:05:35;102563.93;;;21.47;44.04
53679;BME280;40119;52.030;4.708;2022-07-11T09:07:44;102561.03;;;22.38;42.49
53679;BME280;40119;52.030;4.708;2022-07-11T09:09:49;102561.56;;;22.16;42.67
53679;BME280;40119;52.030;4.708;2022-07-11T09:11:56;102559.75;;;23.43;41.31
53679;BME280;40119;52.030;4.708;2022-07-11T09:14:00;102560.56;;;23.43;40.45
53679;BME280;40119;52.030;4.708;2022-07-11T09:16:07;102555.37;;;24.62;39.25
53679;BME280;40119;52.030;4.708;2022-07-11T09:18:30;102560.38;;;24.89;39.31
53679;BME280;40119;52.030;4.708;2022-07-11T09:21:09;102560.35;;;23.46;40.93
53679;BME280;40119;52.030;4.708;2022-07-11T09:23:21;102560.01;;;25.34;37.37
53679;BME280;40119;52.030;4.708;2022-07-11T09:25:29;102563.01;;;25.05;38.05
53679;BME280;40119;52.030;4.708;2022-07-11T09:27:52;102561.65;;;24.41;38.69
53679;BME280;40119;52.030;4.708;2022-07-11T09:30:15;102563.85;;;23.34;40.89
53679;BME280;40119;52.030;4.708;2022-07-11T09:32:28;102558.89;;;26.30;37.20
53679;BME280;40119;52.030;4.708;2022-07-11T09:34:33;102560.35;;;22.01;42.59
53679;BME280;40119;52.030;4.708;2022-07-11T09:36:44;102562.11;;;25.51;37.75
53679;BME280;40119;52.030;4.708;2022-07-11T09:38:58;102558.12;;;24.54;38.61
53679;BME280;40119;52.030;4.708;2022-07-11T09:41:11;102553.30;;;24.45;38.68
53679;BME280;40119;52.030;4.708;2022-07-11T09:43:25;102549.50;;;26.36;35.58
53679;BME280;40119;52.030;4.708;2022-07-11T09:45:32;102555.02;;;26.55;35.17
53679;BME280;40119;52.030;4.708;2022-07-11T09:47:54;102560.46;;;23.11;39.61
53679;BME280;40119;52.030;4.708;2022-07-11T09:49:59;102562.77;;;21.34;42.72
53679;BME280;40119;52.030;4.708;2022-07-11T09:52:08;102560.37;;;22.83;41.54
53679;BME280;40119;52.030;4.708;2022-07-11T09:54:13;102565.63;;;22.19;42.47
53679;BME280;40119;52.030;4.708;2022-07-11T09:56:24;102564.68;;;24.77;38.82
53679;BME280;40119;52.030;4.708;2022-07-11T09:58:29;102565.59;;;22.48;42.19
53679;BME280;40119;52.030;4.708;2022-07-11T10:00:36;102568.57;;;21.37;43.53
53679;BME280;40119;52.030;4.708;2022-07-11T10:02:43;102568.22;;;22.64;42.67
53679;BME280;40119;52.030;4.708;2022-07-11T10:04:55;102568.41;;;22.74;42.36
53679;BME280;40119;52.030;4.708;2022-07-11T10:07:01;102565.26;;;25.42;37.22
53679;BME280;40119;52.030;4.708;2022-07-11T10:09:06;102567.88;;;24.32;38.68
53679;BME280;40119;52.030;4.708;2022-07-11T10:11:11;102566.64;;;23.72;40.49
53679;BME280;40119;52.030;4.708;2022-07-11T10:13:16;102565.86;;;25.78;36.84
53679;BME280;40119;52.030;4.708;2022-07-11T10:15:30;102566.74;;;24.53;38.99
53679;BME280;40119;52.030;4.708;2022-07-11T10:17:48;102566.82;;;23.73;40.02
53679;BME280;40119;52.030;4.708;2022-07-11T10:20:02;102564.00;;;23.50;41.90
53679;BME280;40119;52.030;4.708;2022-07-11T10:22:18;102559.91;;;25.98;35.90
53679;BME280;40119;52.030;4.708;2022-07-11T10:24:32;102558.33;;;24.13;37.17
53679;BME280;40119;52.030;4.708;2022-07-11T10:26:51;102558.25;;;24.45;37.29
53679;BME280;40119;52.030;4.708;2022-07-11T10:29:14;102558.10;;;22.96;39.31
53679;BME280;40119;52.030;4.708;2022-07-11T10:31:23;102554.83;;;22.79;39.60
53679;BME280;40119;52.030;4.708;2022-07-11T10:33:28;102554.01;;;22.55;39.82
53679;BME280;40119;52.030;4.708;2022-07-11T10:35:39;102552.82;;;24.81;37.53
53679;BME280;40119;52.030;4.708;2022-07-11T10:37:46;102556.28;;;23.88;37.37
53679;BME280;40119;52.030;4.708;2022-07-11T10:39:57;102563.21;;;23.51;39.63
53679;BME280;40119;52.030;4.708;2022-07-11T10:42:04;102565.64;;;23.25;37.65
53679;BME280;40119;52.030;4.708;2022-07-11T10:44:09;102562.51;;;21.85;40.43
53679;BME280;40119;52.030;4.708;2022-07-11T10:46:25;102562.72;;;22.31;40.34
53679;BME280;40119;52.030;4.708;2022-07-11T10:48:32;102570.60;;;21.97;40.55
53679;BME280;40119;52.030;4.708;2022-07-11T10:50:38;102567.45;;;21.62;40.56
53679;BME280;40119;52.030;4.708;2022-07-11T10:52:48;102566.94;;;20.85;43.30
53679;BME280;40119;52.030;4.708;2022-07-11T10:55:07;102572.05;;;21.27;43.95
53679;BME280;40119;52.030;4.708;2022-07-11T10:57:23;102569.89;;;22.96;38.53
53679;BME280;40119;52.030;4.708;2022-07-11T10:59:32;102568.53;;;18.68;47.71
53679;BME280;40119;52.030;4.708;2022-07-11T11:01:36;102570.37;;;20.66;43.74
53679;BME280;40119;52.030;4.708;2022-07-11T11:04:42;102565.85;;;19.87;44.64
53679;BME280;40119;52.030;4.708;2022-07-11T11:06:56;102560.59;;;19.97;45.81
53679;BME280;40119;52.030;4.708;2022-07-11T11:09:07;102548.08;;;23.64;38.85
53679;BME280;40119;52.030;4.708;2022-07-11T11:11:47;102548.55;;;25.50;35.21
53679;BME280;40119;52.030;4.708;2022-07-11T11:14:18;102547.20;;;25.34;36.13